West Olive, MI (49460)

9:36 PM EST on February 12, 2016 (GMT -0500)
Stanton St. & 96th Ave. | | Change Station
CLOSE
Current Station
Personal Weather Station
Location: Zeeland, MI
Elevation: 636 ft
Nearby Weather Stations
Active Advisory: Winter Weather Advisory

Elev 636 ft 42.94 °N, 86.03 °W | Updated 11 minutes ago

Snow
Snow
10.4 °F
Feels Like 10 °F
N
2.7
Wind Variable Wind from NE

Today
High -- | Low -- °F
--% Chance of Precip.
Yesterday
High -- | Low -- °F
Precip. -- in
Pressure 30.27 in
Visibility 1.2 miles
Clouds Overcast 2100 ft
Windchill 10 °F
Dew Point 6 °F
Humidity 84%
Rainfall 0.00 in
Snow Depth Not available.
7:46 AM 6:11 PM
Waxing Crescent, 26% visible
SPECI KBIV 130233Z AUTO 35011G23KT 1 1/4SM -SN OVC021 M11/M15 A3027 RMK AO2 PK WND 01027/0209 P0000 T11111150
Pressure 30.27 in
Visibility 1.2 miles
Clouds Overcast 2100 ft
Windchill 10 °F
Dew Point 6 °F
Humidity 84%
Rainfall 0.00 in
Snow Depth Not available.
7:46 AM 6:11 PM
Waxing Crescent, 26% visible
SPECI KBIV 130233Z AUTO 35011G23KT 1 1/4SM -SN OVC021 M11/M15 A3027 RMK AO2 PK WND 01027/0209 P0000 T11111150

10-Day Weather Forecast

Almanac

Astronomy

Feb. 12, 2016 Rise Set
Actual Time
Civil Twilight
Nautical Twilight
Astronomical Twilight
Moon
Length of Visible Light
Length of Day
Tomorrow will be .
, % of the Moon is Illuminated

Today's Extremes

State Highs State Lows

Community

WunderPhotos

Upload Photos

1,892,464 photos uploaded!

WunderBlog® & News

Nearby

Air Quality

  Air Quality AQ Index Pollutant
Not available.

Snow Depth

Station Depth Elevation

Earthquake Activity

City Distance Mag. Time & Date
Minimum magnitude displayed is 2.5.

Coastal Water Temperatures

Place Temperature

Stations

Nearby Weather Stations

Station Location Temp. Windchill Dew Point Humidity Wind Precip. Elev Updated Type
                   

Watches & Warnings

Winter Weather Advisory
Issued: 9:14 PM EST Feb. 12, 2016 – National Weather Service

... Winter Weather Advisory remains in effect until 4 PM EST
Saturday...

Hazardous weather...

* snow continuing and becoming heavier this evening.

* Visibility drops to a few car lengths... continuing overnight.

* Additional 2 to 5 inches of snow mainly falling overnight.

* Storm total snowfall 4 to 7 inches.

Impacts...

* hazardous travel from mid morning Friday through Saturday
   evening.

* Accidents and slideoffs due to slippery roads and low
   visibilities.

* Closures and cancellations.

Precautionary/preparedness actions...

* the Michigan Department of Transportation reminds motorists
   to adjust speeds based on the conditions... and to take it
   slow in ice and snow.